Time;durP1;ratioP1;P1;durP2;ratioP2;P2;SDS_P1;SDS_P2;PMS_P1;PMS_P2;Temp;Humidity;BMP_temperature;BMP_pressure;BME280_temperature;BME280_humidity;BME280_pressure;Samples;Min_cycle;Max_cycle;Signal;HPM_P1;HPM_P2
2023/07/25 00:00:53;;;;;;;2.60;2.40;;;23.40;81.30;;;;;;5057687;28;20230;-72
2023/07/25 00:03:20;;;;;;;2.30;2.10;;;23.30;80.40;;;;;;5053918;28;20298;-72
2023/07/25 00:05:47;;;;;;;3.23;2.20;;;23.30;80.30;;;;;;5054206;28;20209;-72
2023/07/25 00:08:13;;;;;;;2.50;2.30;;;23.30;80.60;;;;;;5064167;28;20622;-72
2023/07/25 00:10:40;;;;;;;3.73;2.53;;;23.30;80.30;;;;;;5061449;28;20446;-72
2023/07/25 00:13:10;;;;;;;3.03;2.73;;;23.20;80.20;;;;;;5057025;28;20212;-72
2023/07/25 00:15:36;;;;;;;2.43;2.23;;;23.10;80.40;;;;;;5053202;28;20314;-72
2023/07/25 00:18:05;;;;;;;3.27;2.30;;;22.90;80.80;;;;;;5054202;28;20206;-72
2023/07/25 00:20:32;;;;;;;2.30;2.10;;;22.90;81.20;;;;;;5058120;28;20212;-72
2023/07/25 00:22:59;;;;;;;3.70;2.43;;;22.90;81.20;;;;;;5055316;28;20324;-72
2023/07/25 00:25:26;;;;;;;3.23;2.20;;;22.90;81.40;;;;;;5062652;28;20202;-72
2023/07/25 00:27:53;;;;;;;2.33;2.10;;;22.90;81.60;;;;;;5053872;28;20206;-72
2023/07/25 00:30:19;;;;;;;2.40;2.13;;;22.90;81.60;;;;;;5053766;28;20209;-72
2023/07/25 00:32:46;;;;;;;2.77;2.30;;;22.90;81.70;;;;;;5053269;28;20225;-72
2023/07/25 00:35:15;;;;;;;2.50;2.23;;;22.90;81.60;;;;;;5073647;28;20268;-72
2023/07/25 00:37:41;;;;;;;6.73;2.50;;;22.90;81.40;;;;;;5073356;28;20221;-72
2023/07/25 00:40:12;;;;;;;2.40;2.20;;;22.90;81.20;;;;;;5063569;28;20222;-72
2023/07/25 00:42:39;;;;;;;4.23;2.20;;;22.90;81.20;;;;;;5062630;28;20217;-71
2023/07/25 00:45:07;;;;;;;3.97;2.50;;;22.90;81.50;;;;;;5053003;28;20207;-72
2023/07/25 00:47:34;;;;;;;3.73;2.70;;;22.90;81.20;;;;;;5052336;28;20214;-72
2023/07/25 00:50:01;;;;;;;4.50;2.50;;;22.80;81.20;;;;;;5060243;28;20205;-72
2023/07/25 00:52:29;;;;;;;4.03;1.90;;;22.80;81.60;;;;;;5050804;28;20213;-72
2023/07/25 00:54:56;;;;;;;2.57;2.07;;;22.80;81.80;;;;;;5053273;28;20629;-72
2023/07/25 00:57:23;;;;;;;2.80;2.40;;;22.80;81.70;;;;;;5054611;28;20218;-72
2023/07/25 00:59:49;;;;;;;5.30;2.40;;;22.80;81.60;;;;;;5053049;28;20201;-71
2023/07/25 01:02:17;;;;;;;3.37;2.53;;;22.80;81.70;;;;;;5065021;28;20205;-72
2023/07/25 01:04:44;;;;;;;3.33;2.57;;;22.70;81.30;;;;;;5065282;28;20204;-72
2023/07/25 01:07:13;;;;;;;3.30;2.90;;;22.60;81.60;;;;;;5052307;28;20534;-72
2023/07/25 01:09:42;;;;;;;4.10;2.40;;;22.60;81.60;;;;;;5052546;28;20221;-72
2023/07/25 01:12:11;;;;;;;2.83;2.37;;;22.50;81.80;;;;;;5051760;28;20218;-72
2023/07/25 01:14:38;;;;;;;3.97;2.60;;;22.50;82.00;;;;;;5052019;28;20209;-72
2023/07/25 01:17:09;;;;;;;2.77;2.20;;;22.50;82.00;;;;;;5055314;28;20230;-72
2023/07/25 01:19:38;;;;;;;3.30;2.50;;;22.50;82.10;;;;;;5050854;28;20233;-73
2023/07/25 01:22:06;;;;;;;2.57;2.37;;;22.60;82.20;;;;;;5051398;28;20598;-72
2023/07/25 01:24:35;;;;;;;6.07;2.30;;;22.60;81.80;;;;;;5051267;28;20244;-72
2023/07/25 01:27:01;;;;;;;2.90;2.20;;;22.60;82.70;;;;;;5054143;28;20600;-72
2023/07/25 01:29:28;;;;;;;2.63;2.43;;;22.60;82.10;;;;;;5055839;28;20260;-72
2023/07/25 01:31:55;;;;;;;2.33;2.00;;;22.60;82.20;;;;;;5051678;28;20669;-72
2023/07/25 01:34:22;;;;;;;3.37;2.43;;;22.60;82.50;;;;;;5063283;28;20296;-72
2023/07/25 01:36:49;;;;;;;2.67;2.40;;;22.60;82.60;;;;;;5051852;28;20233;-72
2023/07/25 01:39:16;;;;;;;3.93;2.83;;;22.60;82.50;;;;;;5052322;28;20653;-72
2023/07/25 01:41:46;;;;;;;2.77;2.20;;;22.60;82.50;;;;;;5059846;28;20212;-72
2023/07/25 01:44:13;;;;;;;3.20;2.47;;;22.60;83.30;;;;;;5052624;28;20234;-72
2023/07/25 01:46:41;;;;;;;4.13;2.77;;;22.60;82.50;;;;;;5045853;28;20202;-72
2023/07/25 01:49:09;;;;;;;3.37;2.67;;;22.60;82.50;;;;;;5052402;28;20564;-72
2023/07/25 01:51:36;;;;;;;3.37;3.07;;;22.50;82.70;;;;;;5054589;28;20209;-72
2023/07/25 01:54:03;;;;;;;3.07;2.70;;;22.40;83.00;;;;;;5051101;28;20209;-72
2023/07/25 01:56:29;;;;;;;4.30;2.70;;;22.30;83.50;;;;;;5059248;28;20206;-72
2023/07/25 01:58:58;;;;;;;3.47;3.00;;;22.10;84.80;;;;;;5052103;28;20796;-72
2023/07/25 02:01:24;;;;;;;3.40;3.10;;;22.00;85.20;;;;;;5051951;28;20314;-72
2023/07/25 02:03:51;;;;;;;3.53;2.73;;;22.00;85.40;;;;;;5051329;28;20221;-72
2023/07/25 02:06:18;;;;;;;4.97;2.87;;;22.10;85.40;;;;;;5051568;28;20205;-72
2023/07/25 02:08:45;;;;;;;3.30;3.00;;;22.00;86.00;;;;;;5063744;28;20274;-72
2023/07/25 02:11:12;;;;;;;3.37;3.07;;;22.10;86.10;;;;;;5051234;28;20715;-72
2023/07/25 02:13:39;;;;;;;3.03;2.73;;;22.10;85.70;;;;;;5050952;28;20842;-72
2023/07/25 02:16:07;;;;;;;5.43;3.33;;;22.10;85.40;;;;;;5052055;28;20197;-72
2023/07/25 02:18:34;;;;;;;3.17;2.70;;;22.10;85.40;;;;;;5066700;28;20229;-72
2023/07/25 02:21:01;;;;;;;3.77;2.60;;;22.20;85.40;;;;;;5071882;28;20340;-72
2023/07/25 02:23:28;;;;;;;6.77;3.17;;;22.20;85.40;;;;;;5050641;28;20293;-72
2023/07/25 02:25:54;;;;;;;5.90;2.93;;;22.30;85.40;;;;;;5058100;28;20620;-72
2023/07/25 02:28:21;;;;;;;3.40;2.87;;;22.30;85.10;;;;;;5064565;28;20201;-72
2023/07/25 02:30:48;;;;;;;4.20;2.73;;;22.40;85.00;;;;;;5061779;28;20201;-72
2023/07/25 02:33:16;;;;;;;3.97;2.83;;;22.40;84.90;;;;;;5055274;28;20214;-72
2023/07/25 02:35:43;;;;;;;3.70;3.13;;;22.40;84.80;;;;;;5055609;28;20201;-72
2023/07/25 02:38:10;;;;;;;4.27;2.50;;;22.40;84.70;;;;;;5055250;28;20221;-72
2023/07/25 02:40:37;;;;;;;4.30;3.17;;;22.40;84.60;;;;;;5053565;28;20205;-72
2023/07/25 02:43:06;;;;;;;3.30;3.00;;;22.40;84.80;;;;;;5057796;28;20213;-72
2023/07/25 02:45:33;;;;;;;3.80;2.60;;;22.50;85.10;;;;;;5055431;28;20224;-72
2023/07/25 02:48:00;;;;;;;4.20;2.80;;;22.50;84.70;;;;;;5055315;28;20685;-72
2023/07/25 02:50:28;;;;;;;5.73;3.23;;;22.40;84.90;;;;;;5069303;28;20235;-72
2023/07/25 02:52:55;;;;;;;2.77;2.57;;;22.40;84.90;;;;;;5061444;28;20329;-71
2023/07/25 02:55:22;;;;;;;3.47;2.80;;;22.40;85.00;;;;;;5055156;28;20210;-72
2023/07/25 02:57:49;;;;;;;3.97;2.53;;;22.40;84.60;;;;;;5055450;28;20210;-72
2023/07/25 03:00:16;;;;;;;4.07;3.00;;;22.40;84.80;;;;;;5055330;28;20573;-72
2023/07/25 03:02:43;;;;;;;6.00;2.80;;;22.40;84.90;;;;;;5054908;28;20217;-72
2023/07/25 03:05:10;;;;;;;4.73;3.17;;;22.40;84.90;;;;;;5054768;28;20252;-72
2023/07/25 03:07:38;;;;;;;4.97;2.90;;;22.40;84.80;;;;;;5055332;28;20248;-72
2023/07/25 03:10:06;;;;;;;4.13;3.17;;;22.40;85.10;;;;;;5035676;28;20588;-72
2023/07/25 03:12:33;;;;;;;3.27;2.93;;;22.30;85.20;;;;;;5049819;28;20221;-72
2023/07/25 03:15:00;;;;;;;5.10;3.20;;;22.30;85.40;;;;;;5054803;28;20554;-72
2023/07/25 03:17:26;;;;;;;4.53;3.43;;;22.30;85.60;;;;;;5055065;28;20225;-72
2023/07/25 03:19:53;;;;;;;5.03;3.03;;;22.20;85.60;;;;;;5063545;28;20277;-72
2023/07/25 03:22:21;;;;;;;3.20;2.90;;;22.20;85.80;;;;;;5057725;28;20206;-72
2023/07/25 03:24:49;;;;;;;3.80;3.20;;;22.10;86.00;;;;;;5071423;28;20225;-72
2023/07/25 03:27:17;;;;;;;5.37;3.40;;;22.00;86.80;;;;;;5062814;28;20202;-72
2023/07/25 03:29:44;;;;;;;4.90;3.37;;;21.90;86.20;;;;;;5054979;28;20658;-72
2023/07/25 03:32:11;;;;;;;5.50;2.80;;;21.90;86.40;;;;;;5054190;28;20249;-72
2023/07/25 03:34:37;;;;;;;5.13;3.07;;;21.90;86.70;;;;;;5064895;28;20210;-72
2023/07/25 03:37:05;;;;;;;3.50;3.10;;;21.90;86.70;;;;;;5054933;28;20247;-72
2023/07/25 03:39:32;;;;;;;4.77;3.60;;;21.90;86.50;;;;;;5061138;28;20229;-72
2023/07/25 03:42:00;;;;;;;3.63;3.00;;;21.90;86.20;;;;;;5058736;28;20189;-71
2023/07/25 03:44:27;;;;;;;4.67;2.80;;;21.90;86.40;;;;;;5053496;28;20210;-72
2023/07/25 03:46:53;;;;;;;3.97;2.83;;;21.80;86.40;;;;;;5054596;28;20305;-72
2023/07/25 03:49:20;;;;;;;4.23;3.03;;;21.80;86.40;;;;;;5053956;28;20200;-72
2023/07/25 03:51:47;;;;;;;2.93;2.70;;;21.80;86.40;;;;;;5054517;28;20689;-72
2023/07/25 03:54:14;;;;;;;5.07;2.83;;;21.80;86.40;;;;;;5053820;28;20829;-72
2023/07/25 03:56:41;;;;;;;4.47;2.70;;;21.70;86.60;;;;;;5054487;28;20220;-72
2023/07/25 03:59:09;;;;;;;3.17;2.87;;;21.80;86.80;;;;;;5057121;28;20221;-72
2023/07/25 04:01:36;;;;;;;2.70;2.50;;;21.90;86.90;;;;;;5057232;28;20222;-72
2023/07/25 04:04:03;;;;;;;3.87;2.80;;;21.90;86.70;;;;;;5053062;28;20197;-72
2023/07/25 04:06:30;;;;;;;3.13;2.57;;;21.90;86.10;;;;;;5054115;28;20206;-71
2023/07/25 04:08:57;;;;;;;3.37;2.60;;;21.90;86.00;;;;;;5054072;28;20220;-72
2023/07/25 04:11:23;;;;;;;3.43;3.03;;;22.00;86.10;;;;;;5054059;28;20653;-71
2023/07/25 04:13:50;;;;;;;3.90;2.60;;;22.00;86.00;;;;;;5053294;28;20202;-72
2023/07/25 04:16:19;;;;;;;3.90;2.90;;;22.00;85.70;;;;;;5050278;28;20233;-71
2023/07/25 04:18:45;;;;;;;4.07;3.00;;;21.90;85.60;;;;;;5053460;28;20222;-72
2023/07/25 04:21:12;;;;;;;5.03;3.00;;;21.80;85.70;;;;;;5053891;28;20221;-72
2023/07/25 04:23:39;;;;;;;4.70;3.20;;;21.70;86.10;;;;;;5060844;28;20803;-72
2023/07/25 04:26:06;;;;;;;5.27;3.30;;;21.70;86.70;;;;;;5056780;28;20197;-72
2023/07/25 04:28:33;;;;;;;4.20;3.40;;;21.60;86.80;;;;;;5068721;28;20209;-71
2023/07/25 04:31:00;;;;;;;3.83;3.17;;;21.70;86.90;;;;;;5073591;28;20209;-71
2023/07/25 04:33:28;;;;;;;3.73;2.77;;;21.60;86.90;;;;;;5073113;28;20225;-71
2023/07/25 04:35:55;;;;;;;4.10;2.97;;;21.60;87.00;;;;;;5073800;28;20205;-72
2023/07/25 04:38:21;;;;;;;6.03;3.53;;;21.60;86.90;;;;;;5073757;28;20205;-72
2023/07/25 04:40:48;;;;;;;3.37;3.03;;;21.70;86.80;;;;;;5070524;28;20232;-72
2023/07/25 04:43:15;;;;;;;2.97;2.73;;;21.70;86.70;;;;;;5066012;28;20208;-72
2023/07/25 04:45:42;;;;;;;4.33;3.40;;;21.60;86.90;;;;;;5064668;28;20205;-72
2023/07/25 04:48:09;;;;;;;4.70;3.07;;;21.70;87.80;;;;;;5055355;28;20292;-71
2023/07/25 04:50:37;;;;;;;3.97;3.10;;;21.70;86.80;;;;;;5068083;28;20211;-72
2023/07/25 04:53:04;;;;;;;4.07;2.70;;;21.70;87.00;;;;;;5069133;28;20232;-72
2023/07/25 04:55:30;;;;;;;3.30;3.00;;;21.70;86.80;;;;;;5056532;28;20201;-71
2023/07/25 04:57:57;;;;;;;4.93;2.73;;;21.70;86.80;;;;;;5053202;28;20208;-71
2023/07/25 05:00:24;;;;;;;4.20;2.63;;;21.70;86.70;;;;;;5063906;28;20224;-72
2023/07/25 05:02:51;;;;;;;2.63;2.43;;;21.70;86.70;;;;;;5069886;28;20200;-72
2023/07/25 05:05:18;;;;;;;4.27;2.87;;;21.80;86.50;;;;;;5052811;28;20202;-71
2023/07/25 05:07:46;;;;;;;3.47;2.33;;;21.80;86.50;;;;;;5061082;28;20221;-72
2023/07/25 05:10:13;;;;;;;2.77;2.47;;;21.80;86.30;;;;;;5052447;28;20292;-72
2023/07/25 05:12:40;;;;;;;3.67;2.90;;;21.70;86.50;;;;;;5052583;28;20204;-72
2023/07/25 05:15:07;;;;;;;3.27;2.97;;;21.70;86.40;;;;;;5057003;28;20230;-72
2023/07/25 05:17:34;;;;;;;3.50;2.53;;;21.70;86.60;;;;;;5052784;28;20285;-72
2023/07/25 05:20:01;;;;;;;3.40;2.73;;;21.70;87.00;;;;;;5051880;28;20240;-72
2023/07/25 05:22:28;;;;;;;2.70;2.50;;;21.70;86.80;;;;;;5066846;28;20209;-72
2023/07/25 05:24:56;;;;;;;3.37;2.73;;;21.80;86.70;;;;;;5051752;28;20255;-72
2023/07/25 05:27:23;;;;;;;2.80;2.50;;;21.80;86.80;;;;;;5052372;28;20197;-72
2023/07/25 05:29:50;;;;;;;3.33;2.47;;;21.90;86.60;;;;;;5051887;28;20626;-71
2023/07/25 05:32:17;;;;;;;2.77;2.57;;;21.90;86.70;;;;;;5052097;28;20210;-72
2023/07/25 05:34:43;;;;;;;2.93;2.63;;;21.90;86.50;;;;;;5063972;28;20228;-72
2023/07/25 05:37:10;;;;;;;2.87;2.40;;;21.80;86.40;;;;;;5052700;28;20206;-72
2023/07/25 05:39:37;;;;;;;3.20;2.57;;;21.80;86.60;;;;;;5051699;28;20214;-72
2023/07/25 05:42:06;;;;;;;2.67;2.40;;;21.80;86.60;;;;;;5061733;28;20228;-72
2023/07/25 05:44:32;;;;;;;2.90;2.40;;;21.80;86.80;;;;;;5051613;28;20543;-72
2023/07/25 05:47:02;;;;;;;3.33;2.43;;;21.80;86.70;;;;;;5056965;28;20201;-72
2023/07/25 05:49:29;;;;;;;2.97;2.40;;;21.90;86.80;;;;;;5056560;28;20556;-72
2023/07/25 05:51:56;;;;;;;3.33;2.40;;;21.90;86.60;;;;;;5052223;28;20201;-72
2023/07/25 05:54:23;;;;;;;3.83;2.60;;;21.90;86.50;;;;;;5051176;28;20678;-72
2023/07/25 05:56:50;;;;;;;4.60;2.40;;;21.90;86.70;;;;;;5052202;28;20206;-72
2023/07/25 05:59:18;;;;;;;4.57;2.40;;;21.90;86.70;;;;;;5051693;28;20226;-71
2023/07/25 06:01:45;;;;;;;2.53;2.33;;;22.00;86.60;;;;;;5046713;28;20198;-72
2023/07/25 06:04:13;;;;;;;3.13;2.30;;;22.00;86.40;;;;;;5050657;28;20224;-72
2023/07/25 06:06:40;;;;;;;2.37;2.17;;;22.00;86.70;;;;;;5060407;28;20221;-72
2023/07/25 06:09:07;;;;;;;3.93;2.47;;;22.00;86.90;;;;;;5052132;28;20279;-72
2023/07/25 06:11:34;;;;;;;3.80;2.43;;;22.00;86.70;;;;;;5051839;28;20206;-72
2023/07/25 06:14:01;;;;;;;4.07;2.60;;;22.10;86.70;;;;;;5046497;28;20206;-72
2023/07/25 06:16:29;;;;;;;3.53;2.60;;;22.00;86.80;;;;;;5045525;28;20218;-72
2023/07/25 06:18:55;;;;;;;4.40;2.43;;;22.00;86.80;;;;;;5046410;28;20203;-72
2023/07/25 06:21:22;;;;;;;3.87;2.50;;;22.10;86.90;;;;;;5057074;28;20793;-71
2023/07/25 06:23:49;;;;;;;4.03;2.77;;;22.10;87.40;;;;;;5071698;28;20673;-72
2023/07/25 06:26:16;;;;;;;3.57;2.53;;;22.10;87.00;;;;;;5070135;28;20209;-72
2023/07/25 06:28:43;;;;;;;4.73;2.70;;;22.00;87.10;;;;;;5071546;28;20975;-72
2023/07/25 06:31:10;;;;;;;2.67;2.37;;;22.10;87.10;;;;;;5061241;28;20213;-71
2023/07/25 06:33:39;;;;;;;2.90;2.60;;;22.10;86.90;;;;;;5058850;28;20216;-72
2023/07/25 06:36:05;;;;;;;3.23;2.40;;;22.10;87.00;;;;;;5054062;28;20260;-72
2023/07/25 06:38:32;;;;;;;2.73;2.20;;;22.10;87.40;;;;;;5051538;28;20213;-71
2023/07/25 06:40:59;;;;;;;2.57;2.10;;;22.10;86.10;;;;;;5051247;28;20238;-71
2023/07/25 06:43:26;;;;;;;2.50;2.03;;;22.00;86.10;;;;;;5049119;28;20196;-71
2023/07/25 06:45:53;;;;;;;3.30;2.50;;;22.10;86.70;;;;;;5038823;28;20627;-71
2023/07/25 06:48:20;;;;;;;3.50;2.60;;;22.20;86.80;;;;;;5049569;28;20217;-71
2023/07/25 06:50:48;;;;;;;3.57;2.30;;;22.20;86.30;;;;;;5052871;28;20205;-72
2023/07/25 06:53:15;;;;;;;3.33;2.40;;;22.20;86.60;;;;;;5051156;28;20562;-72
2023/07/25 06:55:42;;;;;;;2.63;2.10;;;22.10;86.70;;;;;;5049751;28;20212;-72
2023/07/25 06:58:09;;;;;;;2.13;1.93;;;22.10;87.00;;;;;;5045639;28;20237;-72
2023/07/25 07:00:37;;;;;;;2.93;2.07;;;22.20;86.50;;;;;;5050358;28;20325;-72
2023/07/25 07:03:05;;;;;;;2.30;2.10;;;22.20;85.50;;;;;;5049146;28;20214;-72
2023/07/25 07:05:32;;;;;;;2.83;2.00;;;22.10;85.50;;;;;;5049148;28;20240;-72
2023/07/25 07:08:01;;;;;;;2.20;1.90;;;22.20;85.60;;;;;;5050468;28;20187;-72
2023/07/25 07:10:27;;;;;;;2.63;1.97;;;22.20;85.60;;;;;;5051102;28;20204;-72
2023/07/25 07:12:54;;;;;;;2.80;1.90;;;22.10;85.40;;;;;;5049484;28;20236;-72
2023/07/25 07:15:24;;;;;;;3.10;2.40;;;22.20;86.10;;;;;;5050831;28;20222;-72
2023/07/25 07:17:51;;;;;;;2.40;2.13;;;22.20;85.60;;;;;;5053812;28;20288;-72
2023/07/25 07:20:18;;;;;;;3.50;1.90;;;22.30;85.70;;;;;;5051277;28;20586;-72
2023/07/25 07:22:46;;;;;;;2.53;1.73;;;22.40;85.80;;;;;;5053435;28;20197;-72
2023/07/25 07:25:14;;;;;;;1.67;1.57;;;22.50;85.90;;;;;;5053269;28;20230;-72
2023/07/25 07:27:41;;;;;;;2.53;1.77;;;22.50;85.50;;;;;;5049910;28;20217;-72
2023/07/25 07:30:09;;;;;;;3.37;1.93;;;22.60;84.80;;;;;;5035251;28;20545;-72
2023/07/25 07:32:35;;;;;;;3.03;1.80;;;22.60;84.80;;;;;;5046372;28;20217;-72
2023/07/25 07:35:02;;;;;;;1.70;1.50;;;22.60;84.80;;;;;;5050189;28;20216;-72
2023/07/25 07:37:29;;;;;;;1.70;1.60;;;22.70;84.50;;;;;;5054556;28;20218;-72
2023/07/25 07:39:56;;;;;;;2.30;1.47;;;22.80;84.20;;;;;;5054516;28;20221;-72
2023/07/25 07:42:24;;;;;;;2.90;1.80;;;22.90;83.80;;;;;;5050964;28;20755;-72
2023/07/25 07:44:51;;;;;;;2.27;1.73;;;22.90;82.70;;;;;;5052053;28;20232;-72
2023/07/25 07:47:17;;;;;;;1.80;1.50;;;23.10;82.70;;;;;;5054816;28;20594;-72
2023/07/25 07:49:44;;;;;;;2.50;1.73;;;23.10;83.60;;;;;;5054615;28;20210;-71
2023/07/25 07:52:11;;;;;;;2.00;1.50;;;23.30;83.80;;;;;;5054485;28;20226;-72
2023/07/25 07:54:38;;;;;;;1.63;1.43;;;23.30;81.90;;;;;;5052740;28;20546;-72
2023/07/25 07:57:05;;;;;;;2.50;1.80;;;23.40;81.80;;;;;;5054798;28;20213;-72
2023/07/25 07:59:33;;;;;;;2.47;1.70;;;23.50;81.80;;;;;;5054407;28;20589;-72
2023/07/25 08:02:00;;;;;;;2.17;1.97;;;23.60;82.60;;;;;;5054232;28;20214;-72
2023/07/25 08:04:26;;;;;;;3.87;1.97;;;23.70;81.20;;;;;;5053418;28;20212;-72
2023/07/25 08:06:53;;;;;;;3.20;2.20;;;23.80;82.20;;;;;;5053851;28;20800;-72
2023/07/25 08:09:20;;;;;;;1.80;1.63;;;23.80;81.60;;;;;;5052885;28;20305;-72
2023/07/25 08:11:47;;;;;;;1.80;1.70;;;23.80;80.80;;;;;;5053968;28;20564;-72
2023/07/25 08:14:14;;;;;;;2.30;2.10;;;23.90;81.10;;;;;;5053541;28;20217;-72
2023/07/25 08:16:42;;;;;;;4.60;2.03;;;23.80;80.70;;;;;;5054215;28;20213;-72
2023/07/25 08:19:09;;;;;;;3.30;1.60;;;23.70;81.00;;;;;;5053329;28;20693;-72
2023/07/25 08:21:35;;;;;;;3.03;2.23;;;23.60;81.20;;;;;;5054070;28;20224;-71
2023/07/25 08:24:02;;;;;;;3.70;2.20;;;23.60;81.00;;;;;;5053567;28;20256;-71
2023/07/25 08:26:29;;;;;;;3.87;2.43;;;23.60;80.60;;;;;;5052960;28;20222;-71
2023/07/25 08:28:56;;;;;;;4.27;1.93;;;23.60;81.00;;;;;;5035410;28;20604;-71
2023/07/25 08:31:23;;;;;;;2.20;2.00;;;23.60;79.70;;;;;;5054068;28;20204;-72
2023/07/25 08:33:51;;;;;;;2.77;1.90;;;23.60;79.60;;;;;;5052704;28;20688;-71
2023/07/25 08:36:18;;;;;;;2.20;1.67;;;23.60;78.90;;;;;;5053487;28;20665;-71
2023/07/25 08:38:45;;;;;;;2.07;1.80;;;23.70;79.80;;;;;;5053380;28;20244;-71
2023/07/25 08:41:17;;;;;;;3.07;1.83;;;23.80;79.20;;;;;;5053306;28;20229;-72
2023/07/25 08:43:44;;;;;;;3.60;1.87;;;23.90;78.00;;;;;;5053151;28;20232;-72
2023/07/25 08:46:13;;;;;;;2.87;2.20;;;23.90;78.10;;;;;;5052600;28;20206;-72
2023/07/25 08:48:42;;;;;;;2.20;2.00;;;23.90;77.90;;;;;;5053328;28;20235;-71
2023/07/25 08:51:17;;;;;;;2.77;2.10;;;23.90;77.00;;;;;;5053206;28;20240;-72
2023/07/25 08:53:53;;;;;;;3.13;1.90;;;23.90;77.60;;;;;;5052283;28;20190;-71
2023/07/25 08:56:21;;;;;;;2.37;2.00;;;23.90;77.60;;;;;;5052249;28;20188;-71
2023/07/25 08:58:50;;;;;;;2.63;1.90;;;24.00;77.30;;;;;;5047840;28;20683;-72
2023/07/25 09:01:16;;;;;;;3.40;2.40;;;24.10;77.30;;;;;;5052433;28;20233;-72
2023/07/25 09:03:44;;;;;;;2.57;1.90;;;24.20;76.70;;;;;;5051764;28;20237;-72
2023/07/25 09:06:12;;;;;;;2.27;1.83;;;24.20;75.00;;;;;;5051910;28;20206;-72
2023/07/25 09:08:39;;;;;;;2.20;1.77;;;24.10;75.20;;;;;;5052551;28;20717;-72
2023/07/25 09:11:09;;;;;;;3.37;2.07;;;24.20;76.00;;;;;;5052893;28;20197;-72
2023/07/25 09:13:36;;;;;;;1.80;1.67;;;24.20;76.30;;;;;;5051658;28;20241;-72
2023/07/25 09:16:04;;;;;;;5.50;1.97;;;24.10;75.50;;;;;;5049891;28;20212;-72
2023/07/25 09:18:31;;;;;;;4.17;1.93;;;24.20;74.80;;;;;;5053260;28;20232;-72
2023/07/25 09:20:58;;;;;;;4.30;2.40;;;24.10;74.50;;;;;;5052638;28;20237;-72
2023/07/25 09:23:26;;;;;;;4.33;2.23;;;24.10;76.30;;;;;;5047603;28;20193;-72
2023/07/25 09:26:04;;;;;;;2.77;2.30;;;24.10;76.70;;;;;;5052438;28;20212;-72
2023/07/25 09:28:31;;;;;;;6.03;2.60;;;24.00;77.80;;;;;;5052783;28;20193;-72
2023/07/25 09:30:58;;;;;;;3.30;2.13;;;24.20;78.50;;;;;;5030057;28;20266;-71
2023/07/25 09:33:27;;;;;;;3.30;2.20;;;24.10;77.30;;;;;;5052094;28;20736;-72
2023/07/25 09:35:54;;;;;;;3.00;2.33;;;24.10;78.00;;;;;;5051797;28;20288;-72
2023/07/25 09:38:21;;;;;;;3.83;2.30;;;24.30;77.30;;;;;;5052965;28;20209;-72
2023/07/25 09:40:50;;;;;;;3.53;1.80;;;24.10;77.30;;;;;;5052138;28;20232;-72
2023/07/25 09:43:23;;;;;;;2.93;2.30;;;24.00;76.10;;;;;;5039844;28;20218;-72
2023/07/25 09:45:51;;;;;;;2.50;2.03;;;23.80;78.20;;;;;;5051682;28;20221;-71
2023/07/25 09:48:18;;;;;;;3.27;2.37;;;23.60;79.80;;;;;;5052298;28;20229;-72
2023/07/25 09:50:46;;;;;;;2.47;2.17;;;23.40;81.20;;;;;;5050734;28;20200;-72
2023/07/25 09:53:14;;;;;;;3.00;2.10;;;23.30;81.00;;;;;;5052160;28;20226;-72
2023/07/25 09:55:41;;;;;;;4.30;2.80;;;23.10;82.40;;;;;;5051738;28;20190;-71
2023/07/25 09:58:10;;;;;;;2.67;2.07;;;23.10;82.40;;;;;;5051944;28;20212;-72
2023/07/25 10:00:37;;;;;;;5.03;3.30;;;22.90;82.30;;;;;;5052001;28;20268;-72
2023/07/25 10:03:04;;;;;;;4.37;2.43;;;22.90;83.20;;;;;;5052319;28;20202;-71
2023/07/25 10:05:31;;;;;;;3.97;2.30;;;23.00;84.10;;;;;;5051346;28;20200;-72
2023/07/25 10:07:58;;;;;;;3.37;2.20;;;22.90;83.60;;;;;;5051812;28;20224;-71
2023/07/25 10:10:26;;;;;;;2.60;2.20;;;22.80;83.50;;;;;;5052258;28;20205;-71
2023/07/25 10:12:53;;;;;;;2.80;2.20;;;22.90;83.90;;;;;;5051776;28;20194;-72
2023/07/25 10:15:22;;;;;;;3.10;2.00;;;22.90;83.60;;;;;;5051258;28;20230;-71
2023/07/25 10:17:49;;;;;;;3.20;2.27;;;22.80;83.20;;;;;;5052101;28;20208;-71
2023/07/25 10:20:23;;;;;;;4.20;2.50;;;22.90;83.80;;;;;;5051689;28;20238;-71
2023/07/25 10:22:51;;;;;;;2.40;2.13;;;22.90;83.80;;;;;;5051741;28;20217;-72
2023/07/25 10:25:22;;;;;;;3.77;2.20;;;22.90;84.10;;;;;;5051194;28;20264;-72
2023/07/25 10:27:54;;;;;;;2.27;2.07;;;22.90;83.60;;;;;;5051884;28;20198;-72
2023/07/25 10:30:26;;;;;;;2.97;2.10;;;23.00;83.80;;;;;;5051521;28;20256;-72
2023/07/25 10:32:56;;;;;;;3.97;2.20;;;23.10;82.70;;;;;;5051216;28;20220;-72
2023/07/25 10:35:46;;;;;;;3.43;1.90;;;23.10;82.90;;;;;;5047168;28;20226;-72
2023/07/25 10:38:15;;;;;;;3.57;2.10;;;23.20;82.20;;;;;;5044519;28;20244;-72
2023/07/25 10:40:58;;;;;;;3.60;2.10;;;23.10;81.90;;;;;;5051651;28;20245;-72
2023/07/25 10:43:29;;;;;;;3.87;2.50;;;23.00;83.30;;;;;;5049155;28;20190;-72
2023/07/25 10:46:01;;;;;;;5.17;2.13;;;23.00;83.00;;;;;;5050976;28;20263;-72
2023/07/25 10:48:34;;;;;;;3.57;2.60;;;23.10;84.90;;;;;;5051329;28;20283;-72
2023/07/25 10:51:02;;;;;;;1.70;1.60;;;23.20;84.00;;;;;;5052088;28;20647;-72
2023/07/25 10:53:29;;;;;;;2.80;1.53;;;23.20;82.80;;;;;;5053850;28;20197;-72
2023/07/25 10:56:16;;;;;;;1.97;1.30;;;23.10;80.30;;;;;;5055019;28;20232;-72
2023/07/25 10:59:04;;;;;;;1.63;1.27;;;22.80;79.70;;;;;;5055427;28;20205;-72
2023/07/25 11:01:37;;;;;;;1.50;1.23;;;22.80;79.90;;;;;;5055225;28;20240;-73
2023/07/25 11:04:28;;;;;;;2.57;1.37;;;22.70;81.00;;;;;;5054910;28;20191;-72
2023/07/25 11:06:56;;;;;;;2.70;1.40;;;22.80;81.80;;;;;;5055085;28;20206;-72
2023/07/25 11:09:23;;;;;;;1.87;1.20;;;22.80;81.60;;;;;;5055263;28;20240;-72
2023/07/25 11:11:51;;;;;;;1.43;1.30;;;22.80;81.40;;;;;;5055287;28;20281;-72
2023/07/25 11:14:20;;;;;;;2.23;1.33;;;22.80;81.70;;;;;;5053970;28;20233;-72
2023/07/25 11:16:50;;;;;;;3.43;1.57;;;22.80;81.80;;;;;;5054858;28;20301;-72
2023/07/25 11:19:19;;;;;;;1.53;1.30;;;22.80;81.90;;;;;;5037115;28;20705;-72
2023/07/25 11:21:46;;;;;;;1.20;1.10;;;22.80;81.00;;;;;;5054957;28;20720;-72
2023/07/25 11:24:13;;;;;;;0.93;0.93;;;22.80;80.20;;;;;;5054600;28;20214;-72
2023/07/25 11:26:43;;;;;;;1.10;1.00;;;22.70;80.00;;;;;;5054788;28;20662;-72
2023/07/25 11:29:11;;;;;;;2.07;1.17;;;22.70;79.90;;;;;;5040026;28;20284;-71
2023/07/25 11:31:41;;;;;;;0.97;0.97;;;22.60;80.10;;;;;;5054295;28;20198;-72
2023/07/25 11:34:11;;;;;;;1.20;1.10;;;22.60;80.20;;;;;;5054665;28;20198;-71
2023/07/25 11:36:39;;;;;;;1.03;0.93;;;22.60;80.50;;;;;;5054558;28;20191;-72
2023/07/25 11:39:07;;;;;;;1.47;1.30;;;22.60;81.20;;;;;;5054888;28;20210;-71
2023/07/25 11:41:34;;;;;;;2.90;1.40;;;22.50;80.50;;;;;;5054396;28;20237;-73
2023/07/25 11:44:05;;;;;;;1.73;1.30;;;22.50;80.70;;;;;;5054274;28;20283;-72
2023/07/25 11:46:32;;;;;;;1.50;1.17;;;22.50;80.70;;;;;;5036673;28;20194;-72
2023/07/25 11:48:59;;;;;;;2.17;1.17;;;22.50;80.70;;;;;;5054613;28;20237;-71
2023/07/25 11:51:28;;;;;;;1.60;1.27;;;22.50;81.40;;;;;;5054595;28;20202;-72
2023/07/25 11:53:56;;;;;;;1.60;1.30;;;22.60;81.20;;;;;;5053958;28;20198;-72
2023/07/25 11:56:23;;;;;;;1.77;1.67;;;22.70;80.40;;;;;;5054050;28;20308;-73
2023/07/25 11:58:50;;;;;;;1.80;1.10;;;22.80;80.80;;;;;;5054235;28;20300;-72
2023/07/25 12:01:18;;;;;;;1.63;1.03;;;22.90;80.80;;;;;;5053014;28;20740;-72
2023/07/25 12:03:49;;;;;;;1.37;1.20;;;22.90;81.20;;;;;;5051127;28;20206;-72
2023/07/25 12:06:26;;;;;;;1.67;1.23;;;23.10;81.50;;;;;;5053644;28;20295;-72
2023/07/25 12:08:54;;;;;;;1.50;1.40;;;23.20;81.40;;;;;;5054047;28;20235;-72
2023/07/25 12:11:21;;;;;;;2.07;1.63;;;23.30;81.50;;;;;;5054222;28;20326;-72
2023/07/25 12:13:50;;;;;;;1.90;1.63;;;23.30;81.60;;;;;;5053328;28;20219;-72
2023/07/25 12:16:31;;;;;;;1.53;1.20;;;23.40;81.20;;;;;;5053308;28;20249;-71
2023/07/25 12:18:59;;;;;;;1.40;1.30;;;23.40;79.90;;;;;;5054347;28;20252;-72
2023/07/25 12:21:28;;;;;;;1.40;1.30;;;23.40;81.50;;;;;;5054158;28;20228;-73
2023/07/25 12:23:59;;;;;;;1.57;1.37;;;23.40;80.80;;;;;;5053554;28;20220;-72
2023/07/25 12:26:26;;;;;;;2.93;1.53;;;23.50;81.20;;;;;;5048410;28;20284;-73
2023/07/25 12:28:54;;;;;;;1.67;1.57;;;23.60;81.70;;;;;;5048319;28;20222;-72
2023/07/25 12:31:21;;;;;;;1.80;1.70;;;23.70;80.70;;;;;;5033918;28;20221;-71
2023/07/25 12:33:50;;;;;;;2.50;1.70;;;23.70;80.80;;;;;;5044765;28;20630;-71
2023/07/25 12:36:18;;;;;;;1.30;1.20;;;23.80;81.10;;;;;;5053138;28;20234;-71
2023/07/25 12:38:45;;;;;;;1.93;1.77;;;23.90;80.50;;;;;;5053875;28;20607;-72
2023/07/25 12:41:13;;;;;;;1.70;1.60;;;23.90;80.00;;;;;;5053202;28;20658;-71
2023/07/25 12:43:41;;;;;;;1.90;1.80;;;24.00;79.00;;;;;;5044913;28;20208;-72
2023/07/25 12:46:08;;;;;;;1.80;1.70;;;24.10;79.10;;;;;;5052675;28;20259;-72
2023/07/25 12:48:35;;;;;;;1.73;1.63;;;24.20;79.30;;;;;;5053498;28;20225;-72
2023/07/25 12:51:02;;;;;;;1.50;1.40;;;24.30;78.70;;;;;;5053478;28;20206;-72